Time;durP1;ratioP1;P1;durP2;ratioP2;P2;SDS_P1;SDS_P2;PMS_P1;PMS_P2;Temp;Humidity;BMP_temperature;BMP_pressure;BME280_temperature;BME280_humidity;BME280_pressure;Samples;Min_cycle;Max_cycle;Signal;HPM_P1;HPM_P2
2023/02/28 00:00:31;;;;;;;7.60;5.03;;;2.70;1.00;;;;;;4922758;29;20173;-93
2023/02/28 00:03:03;;;;;;;10.40;5.53;;;2.70;1.00;;;;;;4930337;29;20189;-95
2023/02/28 00:05:29;;;;;;;7.70;5.30;;;2.70;1.00;;;;;;4933904;29;20184;-95
2023/02/28 00:07:57;;;;;;;10.13;5.57;;;2.70;1.00;;;;;;4954378;29;20216;-91
2023/02/28 00:10:26;;;;;;;6.93;5.10;;;2.80;1.00;;;;;;4949169;29;20259;-96
2023/02/28 00:13:05;;;;;;;8.57;5.53;;;2.80;1.00;;;;;;4927580;29;20227;-95
2023/02/28 00:15:38;;;;;;;10.83;5.47;;;2.80;1.00;;;;;;4940937;29;20603;-92
2023/02/28 00:18:07;;;;;;;10.57;5.43;;;2.80;1.00;;;;;;4945212;29;20180;-96
2023/02/28 00:20:33;;;;;;;9.17;5.67;;;2.70;1.00;;;;;;4943892;29;20240;-96
2023/02/28 00:23:04;;;;;;;8.10;5.63;;;2.80;1.00;;;;;;4949627;29;20157;-94
2023/02/28 00:25:29;;;;;;;11.40;5.83;;;2.70;1.00;;;;;;4926665;29;20257;-89
2023/02/28 00:27:55;;;;;;;11.20;4.93;;;2.70;1.00;;;;;;4952713;28;20216;-89
2023/02/28 00:30:23;;;;;;;7.37;5.60;;;2.60;1.00;;;;;;4943183;28;20177;-87
2023/02/28 00:32:50;;;;;;;7.83;5.57;;;2.50;1.00;;;;;;4959659;28;20193;-87
2023/02/28 00:35:19;;;;;;;8.10;5.07;;;2.60;1.00;;;;;;4948793;29;20173;-96
2023/02/28 00:37:47;;;;;;;10.27;5.47;;;2.50;1.00;;;;;;4958105;28;20153;-96
2023/02/28 00:40:16;;;;;;;7.43;5.20;;;2.40;1.00;;;;;;4920356;29;20221;-95
2023/02/28 00:42:45;;;;;;;8.53;4.90;;;2.40;1.00;;;;;;4934735;29;20178;-88
2023/02/28 00:45:10;;;;;;;6.80;5.57;;;2.40;1.00;;;;;;4940329;29;20162;-88
2023/02/28 00:47:51;;;;;;;9.57;6.47;;;2.40;1.00;;;;;;4941196;29;20205;-94
2023/02/28 00:50:20;;;;;;;8.17;5.43;;;2.40;1.00;;;;;;4924422;29;20195;-90
2023/02/28 00:52:49;;;;;;;11.40;5.80;;;2.40;1.00;;;;;;4932777;29;20178;-93
2023/02/28 00:55:39;;;;;;;10.70;5.60;;;2.40;1.00;;;;;;4930350;29;20186;-86
2023/02/28 00:58:06;;;;;;;8.07;5.63;;;2.40;1.00;;;;;;4940046;29;20245;-85
2023/02/28 01:00:32;;;;;;;9.53;5.93;;;2.40;1.00;;;;;;4943243;29;20193;-86
2023/02/28 01:03:00;;;;;;;10.00;6.50;;;2.40;1.00;;;;;;4942355;29;20599;-95
2023/02/28 01:05:29;;;;;;;9.60;6.00;;;2.40;1.00;;;;;;4937856;29;20180;-87
2023/02/28 01:07:56;;;;;;;7.90;5.63;;;2.30;1.00;;;;;;4941135;29;20201;-85
2023/02/28 01:10:21;;;;;;;9.10;5.67;;;2.30;1.00;;;;;;4939791;29;20181;-84
2023/02/28 01:12:47;;;;;;;8.57;5.40;;;2.40;1.00;;;;;;4940919;29;20641;-85
2023/02/28 01:15:16;;;;;;;8.90;5.20;;;2.10;1.00;;;;;;4930783;29;20177;-96
2023/02/28 01:17:41;;;;;;;11.77;6.17;;;2.10;1.00;;;;;;4932609;29;20173;-95
2023/02/28 01:20:09;;;;;;;6.13;5.00;;;2.10;1.00;;;;;;4935316;29;20181;-95
2023/02/28 01:22:37;;;;;;;9.07;5.03;;;2.10;1.00;;;;;;4935287;29;20191;-96
2023/02/28 01:25:03;;;;;;;8.53;5.70;;;2.10;1.00;;;;;;4936602;29;20197;-95
2023/02/28 01:27:36;;;;;;;8.67;5.80;;;2.00;1.00;;;;;;4941011;29;20320;-95
2023/02/28 01:30:03;;;;;;;9.10;6.07;;;2.00;1.00;;;;;;4926649;29;20208;-91
2023/02/28 01:32:32;;;;;;;6.23;5.27;;;2.00;1.00;;;;;;4920273;29;20198;-94
2023/02/28 01:34:57;;;;;;;6.97;5.33;;;2.00;1.00;;;;;;4924221;29;20181;-86
2023/02/28 01:37:24;;;;;;;9.03;5.80;;;2.00;1.00;;;;;;4914501;29;20174;-92
2023/02/28 01:39:50;;;;;;;9.10;5.50;;;2.00;1.00;;;;;;4915338;29;20293;-96
2023/02/28 01:42:23;;;;;;;10.10;6.43;;;2.00;1.00;;;;;;4953221;29;20153;-96
2023/02/28 01:45:05;;;;;;;8.83;6.23;;;2.00;1.00;;;;;;4945827;28;20157;-85
2023/02/28 01:47:44;;;;;;;9.37;5.97;;;1.90;1.00;;;;;;4930509;29;20670;-96
2023/02/28 01:50:18;;;;;;;11.00;6.20;;;1.90;1.00;;;;;;4906665;29;20336;-96
2023/02/28 01:52:46;;;;;;;10.63;6.20;;;1.90;1.00;;;;;;4922194;29;20181;-94
2023/02/28 01:55:14;;;;;;;10.33;6.90;;;1.90;1.00;;;;;;4940042;29;20178;-94
2023/02/28 01:57:50;;;;;;;9.70;6.30;;;2.00;1.00;;;;;;4935923;29;20174;-86
2023/02/28 02:00:21;;;;;;;8.57;6.23;;;2.00;1.00;;;;;;4923209;29;20203;-89
2023/02/28 02:02:52;;;;;;;11.90;6.47;;;1.90;1.00;;;;;;4923671;29;20181;-96
2023/02/28 02:05:52;;;;;;;8.00;6.30;;;2.00;1.00;;;;;;4938580;29;20189;-90
2023/02/28 02:08:31;;;;;;;10.57;6.53;;;1.90;1.00;;;;;;4929867;29;20220;-96
2023/02/28 02:11:04;;;;;;;8.20;6.60;;;1.90;1.00;;;;;;4912812;29;20181;-96
2023/02/28 02:13:55;;;;;;;11.03;6.90;;;1.90;1.00;;;;;;4929988;29;20178;-95
2023/02/28 02:17:06;;;;;;;9.20;6.63;;;1.80;1.00;;;;;;4928041;29;20182;-96
2023/02/28 02:20:12;;;;;;;7.73;6.57;;;1.90;1.00;;;;;;4926246;29;20186;-96
2023/02/28 02:23:15;;;;;;;11.77;6.97;;;1.90;1.00;;;;;;4941162;29;20173;-96
2023/02/28 02:26:01;;;;;;;13.17;7.30;;;1.90;1.00;;;;;;4941137;29;20197;-95
2023/02/28 02:28:56;;;;;;;8.57;6.27;;;1.80;1.00;;;;;;4939069;29;20220;-96
2023/02/28 02:31:48;;;;;;;11.37;7.13;;;1.70;1.00;;;;;;4948059;29;20248;-96
2023/02/28 02:34:35;;;;;;;11.30;6.43;;;1.70;1.00;;;;;;4955772;29;20181;-90
2023/02/28 02:37:30;;;;;;;10.47;6.43;;;1.60;1.00;;;;;;4953602;29;20181;-96
2023/02/28 02:40:19;;;;;;;11.80;7.00;;;1.60;1.00;;;;;;4936753;29;20197;-96
2023/02/28 02:42:51;;;;;;;11.43;6.63;;;1.60;1.00;;;;;;4923715;29;20254;-86
2023/02/28 02:45:55;;;;;;;10.53;6.73;;;1.60;1.00;;;;;;4920344;29;20199;-86
2023/02/28 02:48:31;;;;;;;13.80;7.63;;;1.50;1.00;;;;;;4923445;29;20258;-84
2023/02/28 02:51:18;;;;;;;10.30;7.37;;;1.60;1.00;;;;;;4921536;29;20193;-87
2023/02/28 02:54:15;;;;;;;9.07;7.37;;;1.50;1.00;;;;;;4941959;29;20247;-84
2023/02/28 02:56:49;;;;;;;10.40;7.57;;;1.40;1.00;;;;;;4941834;29;20158;-86
2023/02/28 02:59:21;;;;;;;11.20;7.33;;;1.40;1.00;;;;;;4941415;29;20166;-86
2023/02/28 03:01:52;;;;;;;10.90;6.90;;;1.40;1.00;;;;;;4934774;29;20176;-94
2023/02/28 03:04:23;;;;;;;11.57;7.73;;;1.40;1.00;;;;;;4914015;29;20308;-93
2023/02/28 03:07:12;;;;;;;9.53;7.60;;;1.30;1.00;;;;;;4900390;29;20210;-94
2023/02/28 03:09:52;;;;;;;10.73;7.67;;;1.30;1.00;;;;;;4939234;29;20174;-88
2023/02/28 03:12:27;;;;;;;10.60;8.07;;;1.40;1.00;;;;;;4940991;29;20162;-87
2023/02/28 03:15:21;;;;;;;10.60;8.00;;;1.30;1.00;;;;;;4940959;29;20187;-87
2023/02/28 03:17:55;;;;;;;11.83;7.70;;;1.30;1.00;;;;;;4941292;29;20169;-89
2023/02/28 03:20:37;;;;;;;9.83;7.30;;;1.30;1.00;;;;;;4941365;29;20164;-82
2023/02/28 03:23:30;;;;;;;10.93;7.17;;;1.20;1.00;;;;;;4941205;29;20162;-84
2023/02/28 03:26:16;;;;;;;8.63;6.97;;;1.20;1.00;;;;;;4940968;29;20182;-91
2023/02/28 03:29:23;;;;;;;14.53;8.50;;;1.20;1.00;;;;;;4936383;29;20197;-96
2023/02/28 03:32:21;;;;;;;11.97;8.00;;;1.20;1.00;;;;;;4948692;28;20196;-89
2023/02/28 03:35:13;;;;;;;13.20;7.77;;;1.20;1.00;;;;;;4956159;29;20154;-93
2023/02/28 03:37:47;;;;;;;11.47;8.57;;;1.20;1.00;;;;;;4943944;29;20172;-94
2023/02/28 03:40:20;;;;;;;11.07;9.00;;;1.20;1.00;;;;;;4940289;29;20185;-96
2023/02/28 03:43:03;;;;;;;13.30;9.07;;;1.20;1.00;;;;;;4922937;29;20567;-96
2023/02/28 03:45:30;;;;;;;12.60;8.73;;;1.20;1.00;;;;;;4926372;29;20232;-94
2023/02/28 03:48:11;;;;;;;12.33;9.40;;;1.30;1.00;;;;;;4938689;29;20204;-96
2023/02/28 03:50:42;;;;;;;10.97;8.60;;;1.30;1.00;;;;;;4938470;29;20720;-96
2023/02/28 03:53:25;;;;;;;12.57;8.57;;;1.20;1.00;;;;;;4938117;29;20165;-96
2023/02/28 03:55:59;;;;;;;12.83;9.50;;;1.20;1.00;;;;;;4924163;29;20394;-94
2023/02/28 03:58:49;;;;;;;10.63;8.43;;;1.20;1.00;;;;;;4929960;29;20167;-97
2023/02/28 04:01:25;;;;;;;13.63;8.87;;;1.20;1.00;;;;;;4910962;29;20190;-96
2023/02/28 04:03:53;;;;;;;9.87;8.20;;;1.20;1.00;;;;;;4902556;29;20174;-96
2023/02/28 04:06:21;;;;;;;10.67;8.43;;;1.10;1.00;;;;;;4899296;29;20631;-86
2023/02/28 04:08:49;;;;;;;14.43;8.87;;;1.10;1.00;;;;;;4915021;29;20253;-86
2023/02/28 04:11:26;;;;;;;12.83;9.53;;;1.00;1.00;;;;;;4906343;29;20190;-87
2023/02/28 04:13:52;;;;;;;11.77;8.30;;;1.10;1.00;;;;;;4921778;29;20234;-86
2023/02/28 04:16:19;;;;;;;13.33;9.30;;;1.00;1.00;;;;;;4933033;29;20646;-95
2023/02/28 04:18:47;;;;;;;13.07;8.70;;;1.10;1.00;;;;;;4931428;29;20169;-91
2023/02/28 04:24:41;;;;;;;14.97;9.23;;;1.20;1.00;;;;;;4956767;29;20195;-89
2023/02/28 04:27:17;;;;;;;13.47;9.47;;;1.20;1.00;;;;;;4962640;29;20208;-88
2023/02/28 04:29:52;;;;;;;13.43;9.97;;;1.20;1.00;;;;;;4963298;28;20173;-91
2023/02/28 04:32:17;;;;;;;12.63;9.17;;;1.30;1.00;;;;;;4960718;29;20211;-87
2023/02/28 04:34:55;;;;;;;12.60;9.70;;;1.20;1.00;;;;;;4943523;29;20181;-92
2023/02/28 04:37:27;;;;;;;10.87;8.90;;;1.20;1.00;;;;;;4948605;29;20188;-95
2023/02/28 04:39:57;;;;;;;15.33;9.20;;;1.10;1.00;;;;;;4954067;29;20189;-92
2023/02/28 04:42:23;;;;;;;12.63;9.37;;;1.10;1.00;;;;;;4952386;29;20177;-90
2023/02/28 04:44:48;;;;;;;14.80;9.47;;;1.10;1.00;;;;;;4951459;29;20181;-92
2023/02/28 04:47:18;;;;;;;13.00;9.17;;;1.00;1.00;;;;;;4950750;29;20251;-90
2023/02/28 04:49:47;;;;;;;15.17;8.57;;;1.10;1.00;;;;;;4959323;29;20176;-85
2023/02/28 04:52:14;;;;;;;12.67;8.63;;;1.10;1.00;;;;;;4957743;29;20184;-96
2023/02/28 04:54:50;;;;;;;13.23;8.83;;;1.10;1.00;;;;;;4946034;29;20228;-91
2023/02/28 04:57:17;;;;;;;11.73;8.40;;;1.10;1.00;;;;;;4951975;29;20176;-91
2023/02/28 04:59:44;;;;;;;9.57;7.93;;;1.00;1.00;;;;;;4955738;29;20184;-84
2023/02/28 05:02:13;;;;;;;13.10;8.60;;;1.00;1.00;;;;;;4960604;29;20209;-85
2023/02/28 05:04:44;;;;;;;12.33;9.13;;;1.00;1.00;;;;;;4963647;28;20208;-88
2023/02/28 05:07:10;;;;;;;15.77;10.30;;;1.00;1.00;;;;;;4961884;28;20217;-86
2023/02/28 05:09:36;;;;;;;14.07;9.17;;;1.00;1.00;;;;;;4962038;28;20181;-84
2023/02/28 05:12:01;;;;;;;14.17;10.27;;;1.10;1.00;;;;;;4960552;29;20204;-93
2023/02/28 05:14:56;;;;;;;13.17;9.17;;;1.20;1.00;;;;;;4950242;29;20161;-86
2023/02/28 05:17:21;;;;;;;10.77;8.63;;;1.20;1.00;;;;;;4958565;29;20157;-96
2023/02/28 05:19:50;;;;;;;11.17;9.53;;;1.20;1.00;;;;;;4956299;29;20165;-89
2023/02/28 05:22:52;;;;;;;11.63;8.57;;;1.20;1.00;;;;;;4961018;28;20149;-86
2023/02/28 05:25:22;;;;;;;12.53;9.37;;;1.20;1.00;;;;;;4961013;28;20549;-94
2023/02/28 05:27:50;;;;;;;11.33;8.27;;;1.10;1.00;;;;;;4936588;29;20229;-96
2023/02/28 05:30:19;;;;;;;12.50;9.23;;;1.20;1.00;;;;;;4951576;29;20605;-96
2023/02/28 05:33:13;;;;;;;14.10;9.40;;;1.20;1.00;;;;;;4939653;29;20166;-96
2023/02/28 05:35:58;;;;;;;12.53;8.53;;;1.20;1.00;;;;;;4920605;29;20197;-96
2023/02/28 05:38:26;;;;;;;14.27;10.13;;;1.30;1.00;;;;;;4937454;29;20185;-96
2023/02/28 05:40:56;;;;;;;17.47;9.27;;;1.30;1.00;;;;;;4924995;29;20253;-96
2023/02/28 05:43:35;;;;;;;10.70;8.53;;;1.30;1.00;;;;;;4942697;29;20169;-96
2023/02/28 05:46:17;;;;;;;12.00;8.87;;;1.30;1.00;;;;;;4938281;29;20276;-96
2023/02/28 05:48:46;;;;;;;12.90;8.83;;;1.40;1.00;;;;;;4934811;29;20241;-96
2023/02/28 05:51:15;;;;;;;14.40;9.30;;;1.30;1.00;;;;;;4923652;29;20184;-91
2023/02/28 05:53:41;;;;;;;12.30;8.27;;;1.30;1.00;;;;;;4956725;28;20236;-88
2023/02/28 05:56:07;;;;;;;12.33;8.20;;;1.20;1.00;;;;;;4960328;28;20169;-87
2023/02/28 05:58:34;;;;;;;13.70;8.77;;;1.30;1.00;;;;;;4961684;28;20189;-84
2023/02/28 06:01:39;;;;;;;12.77;9.50;;;1.30;1.00;;;;;;4945619;29;20208;-85
2023/02/28 06:04:55;;;;;;;12.73;8.30;;;1.30;1.00;;;;;;4961713;29;20188;-94
2023/02/28 06:07:24;;;;;;;11.80;7.87;;;1.30;1.00;;;;;;4956762;28;20259;-96
2023/02/28 06:09:49;;;;;;;8.63;7.37;;;1.30;1.00;;;;;;4946528;29;20189;-96
2023/02/28 06:12:17;;;;;;;10.47;8.50;;;1.30;1.00;;;;;;4933403;29;20266;-96
2023/02/28 06:15:03;;;;;;;14.63;8.63;;;1.30;1.00;;;;;;4930991;29;20178;-93
2023/02/28 06:17:30;;;;;;;15.60;9.07;;;1.30;1.00;;;;;;4929583;29;20269;-95
2023/02/28 06:19:59;;;;;;;12.37;8.10;;;1.40;1.00;;;;;;4928483;29;20200;-93
2023/02/28 06:22:25;;;;;;;15.80;10.37;;;1.40;1.00;;;;;;4927852;29;20213;-96
2023/02/28 06:25:00;;;;;;;13.73;9.33;;;1.40;1.00;;;;;;4929793;29;20225;-91
2023/02/28 06:27:57;;;;;;;12.80;9.20;;;1.40;1.00;;;;;;4936712;29;20213;-95
2023/02/28 06:30:25;;;;;;;13.00;9.03;;;1.40;1.00;;;;;;4935987;29;20188;-91
2023/02/28 06:32:51;;;;;;;13.63;8.83;;;1.50;1.00;;;;;;4929680;29;20257;-93
2023/02/28 06:35:23;;;;;;;14.00;8.70;;;1.40;1.00;;;;;;4919616;29;20189;-94
2023/02/28 06:38:02;;;;;;;11.73;8.67;;;1.50;1.00;;;;;;4926597;29;20179;-85
2023/02/28 06:40:42;;;;;;;10.83;7.40;;;1.50;1.00;;;;;;4920794;29;20186;-95
2023/02/28 06:43:23;;;;;;;13.37;9.27;;;1.50;1.00;;;;;;4921392;29;20167;-85
2023/02/28 06:46:00;;;;;;;17.30;8.53;;;1.80;1.00;;;;;;4920322;29;20225;-93
2023/02/28 06:48:33;;;;;;;14.97;9.20;;;1.60;1.00;;;;;;4921265;29;20233;-90
2023/02/28 06:51:10;;;;;;;15.33;8.20;;;1.70;1.00;;;;;;4932751;29;20234;-94
2023/02/28 06:53:36;;;;;;;13.83;8.97;;;1.80;1.00;;;;;;4922880;29;20182;-86
2023/02/28 06:56:16;;;;;;;11.50;7.77;;;1.90;1.00;;;;;;4917836;29;20187;-86
2023/02/28 06:58:41;;;;;;;12.33;8.33;;;1.90;1.00;;;;;;4919170;29;20285;-85
2023/02/28 07:01:10;;;;;;;11.33;8.13;;;1.90;1.00;;;;;;4898437;29;20632;-87
2023/02/28 07:03:38;;;;;;;11.77;8.27;;;1.80;1.00;;;;;;4900785;29;20182;-87
2023/02/28 07:06:07;;;;;;;11.87;8.27;;;1.70;1.00;;;;;;4899762;29;20651;-88
2023/02/28 07:08:35;;;;;;;14.67;8.73;;;1.80;1.00;;;;;;4899459;29;20270;-88
2023/02/28 07:11:02;;;;;;;14.33;8.37;;;1.80;1.00;;;;;;4904603;29;20194;-95
2023/02/28 07:13:28;;;;;;;15.50;8.87;;;1.90;1.00;;;;;;4889572;29;20201;-96
2023/02/28 07:16:14;;;;;;;16.33;9.07;;;1.90;1.00;;;;;;4911305;29;20261;-90
2023/02/28 07:18:40;;;;;;;18.03;9.07;;;2.00;1.00;;;;;;4910700;29;20503;-88
2023/02/28 07:21:10;;;;;;;11.77;7.83;;;2.10;1.00;;;;;;4906733;29;20218;-87
2023/02/28 07:23:38;;;;;;;12.40;7.90;;;2.10;1.00;;;;;;4919727;29;20166;-85
2023/02/28 07:26:11;;;;;;;11.37;8.40;;;2.10;1.00;;;;;;4928800;29;20201;-85
2023/02/28 07:28:38;;;;;;;12.93;8.67;;;2.10;1.00;;;;;;4924059;29;20217;-88
2023/02/28 07:31:08;;;;;;;15.53;8.40;;;2.20;1.00;;;;;;4911133;29;20222;-85
2023/02/28 07:33:34;;;;;;;11.57;8.27;;;2.30;1.00;;;;;;4909961;29;20244;-89
2023/02/28 07:36:15;;;;;;;16.83;8.87;;;2.20;1.00;;;;;;4920907;29;20178;-85
2023/02/28 07:38:47;;;;;;;14.13;9.00;;;2.20;1.00;;;;;;4918897;29;20274;-86
2023/02/28 07:41:21;;;;;;;10.43;7.80;;;2.40;1.00;;;;;;4917487;29;20185;-86
2023/02/28 07:43:47;;;;;;;12.93;7.80;;;2.50;1.00;;;;;;4916956;29;20574;-87
2023/02/28 07:46:15;;;;;;;11.07;7.80;;;2.60;1.00;;;;;;4918066;29;20543;-88
2023/02/28 07:48:49;;;;;;;13.33;8.17;;;2.60;1.00;;;;;;4918466;29;20217;-87
2023/02/28 07:51:16;;;;;;;10.97;6.90;;;2.60;1.00;;;;;;4925879;29;20186;-86
2023/02/28 07:53:42;;;;;;;10.20;6.73;;;2.70;1.00;;;;;;4923922;29;20177;-86
2023/02/28 07:56:10;;;;;;;12.73;6.40;;;2.60;1.00;;;;;;4916850;29;20362;-85
2023/02/28 07:58:37;;;;;;;13.30;6.07;;;2.70;1.00;;;;;;4901265;29;20189;-85
2023/02/28 08:01:15;;;;;;;8.73;6.00;;;2.80;1.00;;;;;;4916086;29;20187;-86
2023/02/28 08:03:41;;;;;;;8.17;5.50;;;2.70;1.00;;;;;;4916202;29;20323;-86
2023/02/28 08:06:17;;;;;;;8.67;6.83;;;2.90;1.00;;;;;;4916464;29;20650;-86
2023/02/28 08:08:44;;;;;;;9.07;5.20;;;2.90;1.00;;;;;;4918310;29;20669;-87
2023/02/28 08:11:10;;;;;;;7.23;5.03;;;2.90;1.00;;;;;;4916150;29;20189;-86
2023/02/28 08:13:35;;;;;;;7.17;5.07;;;3.00;1.00;;;;;;4917522;29;20177;-86
2023/02/28 08:16:02;;;;;;;9.07;4.47;;;3.00;99.90;;;;;;4917318;29;20177;-87
2023/02/28 08:18:28;;;;;;;7.00;5.17;;;3.10;99.90;;;;;;4916274;29;20181;-86
2023/02/28 08:20:54;;;;;;;8.97;5.57;;;3.10;1.00;;;;;;4916381;29;20181;-87
2023/02/28 08:23:33;;;;;;;8.70;5.37;;;3.30;99.90;;;;;;4917369;29;20638;-87
2023/02/28 08:25:59;;;;;;;6.37;4.10;;;3.40;99.90;;;;;;4916084;29;20212;-87
2023/02/28 08:28:30;;;;;;;8.10;4.80;;;3.20;1.00;;;;;;4918096;29;20213;-86
2023/02/28 08:30:56;;;;;;;7.50;4.50;;;3.40;1.00;;;;;;4910842;29;20204;-88
2023/02/28 08:33:22;;;;;;;7.40;4.17;;;3.50;1.00;;;;;;4900353;29;20182;-87
2023/02/28 08:35:56;;;;;;;5.77;4.00;;;3.40;1.00;;;;;;4904931;29;20206;-86
2023/02/28 08:38:24;;;;;;;4.67;3.60;;;3.50;99.90;;;;;;4907585;29;20533;-86
2023/02/28 08:40:49;;;;;;;7.20;3.90;;;3.50;1.00;;;;;;4907376;29;20242;-88
2023/02/28 08:43:16;;;;;;;10.10;4.30;;;3.60;99.90;;;;;;4900343;29;20198;-87
2023/02/28 08:45:42;;;;;;;5.17;3.70;;;4.00;1.00;;;;;;4900136;29;20183;-86
2023/02/28 08:48:08;;;;;;;4.90;3.27;;;3.70;99.90;;;;;;4929347;29;20300;-87
2023/02/28 08:50:33;;;;;;;5.30;3.50;;;3.60;99.90;;;;;;4926466;29;20177;-86
2023/02/28 08:53:03;;;;;;;6.30;3.90;;;3.60;99.90;;;;;;4900888;29;20182;-87
2023/02/28 08:55:30;;;;;;;4.33;3.33;;;3.60;1.00;;;;;;4907396;29;20175;-85
2023/02/28 08:58:00;;;;;;;5.67;3.57;;;3.60;1.00;;;;;;4920219;29;20208;-85
2023/02/28 09:00:28;;;;;;;4.73;3.50;;;3.60;1.00;;;;;;4916984;29;20316;-84
2023/02/28 09:02:57;;;;;;;6.90;3.00;;;3.70;1.00;;;;;;4916872;29;20196;-85
2023/02/28 09:05:23;;;;;;;4.90;3.03;;;3.70;1.00;;;;;;4922179;29;20182;-87
2023/02/28 09:07:51;;;;;;;4.87;3.37;;;3.80;1.00;;;;;;4916770;29;20242;-84
2023/02/28 09:10:17;;;;;;;5.93;3.47;;;3.80;99.90;;;;;;4917070;29;20206;-85
2023/02/28 09:12:45;;;;;;;4.80;3.30;;;3.70;99.90;;;;;;4919769;29;20181;-85
2023/02/28 09:15:11;;;;;;;6.47;3.37;;;3.80;99.90;;;;;;4919826;29;20181;-87
2023/02/28 09:17:40;;;;;;;5.37;3.57;;;3.80;99.90;;;;;;4919476;29;20200;-86
2023/02/28 09:20:06;;;;;;;6.37;3.50;;;3.70;1.00;;;;;;4919599;29;20177;-87
2023/02/28 09:22:32;;;;;;;4.83;3.70;;;3.80;99.90;;;;;;4919367;29;20182;-86
2023/02/28 09:25:08;;;;;;;5.83;3.23;;;3.90;1.00;;;;;;4920333;29;20198;-85
2023/02/28 09:27:34;;;;;;;4.40;3.10;;;3.90;99.90;;;;;;4935312;29;20375;-86
2023/02/28 09:30:00;;;;;;;4.77;2.93;;;3.80;1.00;;;;;;4931170;29;20264;-85
2023/02/28 09:32:26;;;;;;;5.37;3.33;;;3.70;99.90;;;;;;4919519;29;20196;-85
2023/02/28 09:34:52;;;;;;;6.60;3.53;;;3.80;1.00;;;;;;4919076;29;20233;-85
2023/02/28 09:37:19;;;;;;;5.27;3.10;;;3.80;1.00;;;;;;4918854;29;20189;-85
2023/02/28 09:39:50;;;;;;;3.83;2.73;;;3.80;28.20;;;;;;4919646;29;20642;-85
2023/02/28 09:42:31;;;;;;;6.17;3.20;;;3.90;1.00;;;;;;4919806;29;20280;-86
2023/02/28 09:45:44;;;;;;;8.00;3.40;;;3.80;1.00;;;;;;4921502;29;20241;-86
2023/02/28 09:48:15;;;;;;;5.50;3.23;;;3.80;99.90;;;;;;4900584;29;20217;-84
2023/02/28 09:51:16;;;;;;;4.53;2.70;;;4.10;99.90;;;;;;4885125;29;20190;-85
2023/02/28 09:53:42;;;;;;;6.30;3.60;;;4.20;99.90;;;;;;4892255;29;20189;-85
2023/02/28 09:56:18;;;;;;;4.87;2.60;;;4.20;1.00;;;;;;4925074;29;20193;-84
2023/02/28 09:59:00;;;;;;;4.27;2.50;;;4.00;99.90;;;;;;4927914;29;20169;-83
2023/02/28 10:02:03;;;;;;;6.77;3.00;;;4.10;1.00;;;;;;4924608;29;20285;-83
2023/02/28 10:04:51;;;;;;;3.93;2.70;;;4.10;99.90;;;;;;4917322;29;20272;-83
2023/02/28 10:07:36;;;;;;;3.70;2.50;;;4.10;1.00;;;;;;4919793;29;20356;-87
2023/02/28 10:10:14;;;;;;;4.30;2.50;;;4.00;1.00;;;;;;4919641;29;20320;-85
2023/02/28 10:12:45;;;;;;;3.10;2.30;;;4.00;1.00;;;;;;4900062;29;20182;-84
2023/02/28 10:15:16;;;;;;;6.20;2.90;;;4.00;1.00;;;;;;4902132;29;20177;-85
2023/02/28 10:17:46;;;;;;;5.50;2.50;;;4.00;1.00;;;;;;4945610;29;20177;-84
2023/02/28 10:20:20;;;;;;;5.00;2.40;;;4.10;1.00;;;;;;4939706;29;20161;-85
2023/02/28 10:23:14;;;;;;;4.83;3.13;;;4.20;1.00;;;;;;4917367;29;20213;-83
2023/02/28 10:25:40;;;;;;;4.07;2.77;;;4.20;99.90;;;;;;4918297;29;20685;-85
2023/02/28 10:28:13;;;;;;;4.17;2.73;;;4.20;1.00;;;;;;4918136;29;20620;-85
2023/02/28 10:30:46;;;;;;;4.10;2.77;;;4.40;1.00;;;;;;4918032;29;20189;-84
2023/02/28 10:33:22;;;;;;;3.97;2.73;;;4.30;1.00;;;;;;4918494;29;20193;-84
2023/02/28 10:35:48;;;;;;;3.80;2.60;;;4.30;1.00;;;;;;4918728;29;20181;-86
2023/02/28 10:38:32;;;;;;;3.60;2.70;;;4.20;99.90;;;;;;4932066;29;20229;-85
2023/02/28 10:41:10;;;;;;;3.40;2.40;;;4.30;99.90;;;;;;4925301;29;20185;-84
2023/02/28 10:43:44;;;;;;;3.27;1.63;;;4.30;99.90;;;;;;4921305;29;20176;-84
2023/02/28 10:46:25;;;;;;;3.10;1.93;;;4.40;1.00;;;;;;4937044;29;20625;-83
2023/02/28 10:49:27;;;;;;;4.03;1.83;;;4.40;99.90;;;;;;4937137;29;20196;-85
2023/02/28 10:52:03;;;;;;;4.30;2.20;;;4.20;99.90;;;;;;4937803;29;20188;-84
2023/02/28 10:54:37;;;;;;;2.57;1.67;;;4.30;99.90;;;;;;4926353;29;20188;-84
2023/02/28 10:57:16;;;;;;;3.33;2.03;;;4.30;99.90;;;;;;4932045;29;20187;-84
2023/02/28 10:59:42;;;;;;;3.27;2.10;;;4.40;99.90;;;;;;4944487;29;20208;-84
2023/02/28 11:02:34;;;;;;;3.70;1.87;;;4.60;99.90;;;;;;4927311;29;20181;-85
2023/02/28 11:05:02;;;;;;;3.83;2.47;;;4.80;99.90;;;;;;4923213;29;20185;-84
2023/02/28 11:07:34;;;;;;;4.03;2.10;;;4.90;99.90;;;;;;4921184;29;20244;-87
2023/02/28 11:10:18;;;;;;;3.73;2.00;;;4.80;99.90;;;;;;4923166;29;20182;-84
2023/02/28 11:13:12;;;;;;;3.60;2.30;;;4.90;99.90;;;;;;4927804;29;20177;-85
2023/02/28 11:15:57;;;;;;;3.53;2.10;;;5.10;99.90;;;;;;4929586;29;20244;-83
2023/02/28 11:18:40;;;;;;;4.07;2.23;;;5.20;99.90;;;;;;4922130;29;20182;-84
2023/02/28 11:21:07;;;;;;;2.97;1.90;;;5.10;99.90;;;;;;4920301;29;20169;-84
2023/02/28 11:23:36;;;;;;;4.27;2.90;;;5.00;99.90;;;;;;4918975;29;20181;-86
2023/02/28 11:26:04;;;;;;;4.93;2.33;;;5.00;99.90;;;;;;4923143;29;20204;-83
2023/02/28 11:28:43;;;;;;;3.13;2.27;;;5.20;99.90;;;;;;4923676;29;20225;-84
2023/02/28 11:31:14;;;;;;;3.77;1.87;;;4.90;99.90;;;;;;4913988;29;20271;-82
2023/02/28 11:33:57;;;;;;;3.37;2.20;;;4.90;99.90;;;;;;4909636;29;20170;-85
2023/02/28 11:36:28;;;;;;;5.43;2.87;;;5.00;99.90;;;;;;4906483;29;20180;-86
2023/02/28 11:38:55;;;;;;;4.77;2.47;;;5.00;99.90;;;;;;4907905;29;20643;-84
2023/02/28 11:41:42;;;;;;;4.13;2.40;;;5.20;99.90;;;;;;4926468;29;20169;-83
2023/02/28 11:44:42;;;;;;;3.00;2.07;;;5.10;99.90;;;;;;4925842;29;20181;-86
2023/02/28 11:47:32;;;;;;;3.37;2.30;;;5.20;99.90;;;;;;4938165;29;20236;-85
2023/02/28 11:50:32;;;;;;;3.10;1.90;;;5.10;99.90;;;;;;4917363;29;20210;-84
2023/02/28 11:53:22;;;;;;;4.07;2.40;;;5.00;99.90;;;;;;4899064;29;20202;-85
2023/02/28 11:56:05;;;;;;;4.03;2.30;;;4.80;99.90;;;;;;4932703;29;20661;-85
2023/02/28 11:58:36;;;;;;;5.20;2.87;;;4.80;99.90;;;;;;4898113;29;20178;-86
2023/02/28 12:01:29;;;;;;;3.90;2.50;;;4.90;99.90;;;;;;4905509;29;20491;-85
2023/02/28 12:04:35;;;;;;;6.13;2.53;;;5.00;99.90;;;;;;4918697;29;20201;-86
2023/02/28 12:07:13;;;;;;;4.03;2.40;;;5.00;99.90;;;;;;4918540;29;20209;-84
2023/02/28 12:09:57;;;;;;;5.57;3.07;;;5.20;99.90;;;;;;4917819;29;20254;-86
2023/02/28 12:13:04;;;;;;;4.93;2.97;;;5.10;99.90;;;;;;4918387;29;20201;-84
2023/02/28 12:15:39;;;;;;;3.50;2.50;;;5.30;99.90;;;;;;4906679;29;20227;-84
2023/02/28 12:18:18;;;;;;;4.90;2.30;;;5.30;99.90;;;;;;4916619;29;20177;-84
2023/02/28 12:20:56;;;;;;;4.83;2.70;;;5.50;99.90;;;;;;4918493;29;20273;-83
2023/02/28 12:23:47;;;;;;;5.30;2.23;;;5.40;99.90;;;;;;4917702;29;20645;-83
2023/02/28 12:26:16;;;;;;;4.63;3.00;;;5.20;99.90;;;;;;4930191;29;20173;-82
2023/02/28 12:28:59;;;;;;;4.60;2.50;;;5.30;99.90;;;;;;4925340;29;20225;-82
2023/02/28 12:31:28;;;;;;;6.93;2.70;;;5.40;99.90;;;;;;4919398;29;20253;-83
2023/02/28 12:34:06;;;;;;;4.67;2.17;;;5.30;99.90;;;;;;4903542;29;20182;-86
2023/02/28 12:36:36;;;;;;;3.83;2.30;;;5.30;99.90;;;;;;4927799;29;20180;-84
2023/02/28 12:39:16;;;;;;;4.63;2.70;;;5.30;99.90;;;;;;4933260;29;20717;-84
2023/02/28 12:41:58;;;;;;;3.07;2.20;;;5.30;99.90;;;;;;4921027;29;20180;-89
2023/02/28 12:44:30;;;;;;;4.63;2.40;;;5.40;99.90;;;;;;4923564;29;20182;-83
2023/02/28 12:47:05;;;;;;;4.53;2.60;;;5.40;99.90;;;;;;4920760;29;20219;-83
2023/02/28 12:49:43;;;;;;;3.33;2.50;;;5.40;99.90;;;;;;4922582;29;20579;-83
2023/02/28 12:52:17;;;;;;;4.13;2.80;;;5.60;99.90;;;;;;4922116;29;20177;-83
2023/02/28 12:55:07;;;;;;;3.30;2.10;;;5.60;99.90;;;;;;4922435;29;20181;-84
2023/02/28 12:57:54;;;;;;;3.87;2.53;;;5.80;67.20;;;;;;4923868;29;20178;-86
2023/02/28 13:00:24;;;;;;;3.63;2.30;;;5.80;80.50;;;;;;4921046;29;20192;-89
2023/02/28 13:03:21;;;;;;;3.30;2.37;;;5.90;83.90;;;;;;4921933;29;20182;-85
2023/02/28 13:06:25;;;;;;;2.37;2.00;;;5.90;44.60;;;;;;4921937;29;20230;-86
2023/02/28 13:09:03;;;;;;;3.23;2.53;;;5.80;15.30;;;;;;4905504;29;20217;-85
2023/02/28 13:11:39;;;;;;;2.87;2.30;;;5.80;17.50;;;;;;4919560;29;20232;-86
2023/02/28 13:14:28;;;;;;;4.53;2.67;;;5.80;13.80;;;;;;4922249;29;20184;-84
2023/02/28 13:17:12;;;;;;;3.63;2.20;;;5.70;13.50;;;;;;4920763;29;20186;-83
2023/02/28 13:19:51;;;;;;;6.13;2.37;;;5.70;1.00;;;;;;4920270;29;20181;-84
2023/02/28 13:22:40;;;;;;;2.97;2.23;;;5.70;1.00;;;;;;4920846;29;20272;-84
2023/02/28 13:25:37;;;;;;;3.33;2.50;;;6.00;1.00;;;;;;4921155;29;20340;-84
2023/02/28 13:28:10;;;;;;;3.47;2.20;;;5.70;1.00;;;;;;4908602;29;20233;-84
2023/02/28 13:30:52;;;;;;;2.97;1.90;;;5.70;1.00;;;;;;4920546;29;20210;-84
2023/02/28 13:33:31;;;;;;;3.43;1.90;;;5.60;1.00;;;;;;4918936;29;20289;-84
2023/02/28 13:36:10;;;;;;;4.63;1.90;;;5.50;1.00;;;;;;4916966;29;20513;-85
2023/02/28 13:38:48;;;;;;;4.13;2.17;;;5.40;1.00;;;;;;4932302;29;20184;-83
2023/02/28 13:41:30;;;;;;;4.87;2.40;;;5.50;1.00;;;;;;4937842;29;20287;-86
2023/02/28 13:44:09;;;;;;;4.47;2.30;;;5.50;1.00;;;;;;4938112;29;20549;-85
2023/02/28 13:46:57;;;;;;;4.40;2.33;;;5.60;1.00;;;;;;4939184;29;20645;-84